sensor_id;sensor_type;location;lat;lon;timestamp;P1;durP1;ratioP1;P2;durP2;ratioP2
54167;SDS011;68429;50.958;3.592;2023-11-18T00:00:48;18.38;;;10.07;;
54167;SDS011;68429;50.958;3.592;2023-11-18T00:03:14;28.90;;;11.23;;
54167;SDS011;68429;50.958;3.592;2023-11-18T00:05:40;22.27;;;10.65;;
54167;SDS011;68429;50.958;3.592;2023-11-18T00:08:05;22.52;;;10.90;;
54167;SDS011;68429;50.958;3.592;2023-11-18T00:10:31;26.73;;;10.68;;
54167;SDS011;68429;50.958;3.592;2023-11-18T00:12:57;23.80;;;10.73;;
54167;SDS011;68429;50.958;3.592;2023-11-18T00:15:23;24.73;;;10.13;;
54167;SDS011;68429;50.958;3.592;2023-11-18T00:17:48;32.97;;;10.57;;
54167;SDS011;68429;50.958;3.592;2023-11-18T00:20:14;20.38;;;9.75;;
54167;SDS011;68429;50.958;3.592;2023-11-18T00:22:41;24.25;;;10.52;;
54167;SDS011;68429;50.958;3.592;2023-11-18T00:25:08;26.85;;;9.90;;
54167;SDS011;68429;50.958;3.592;2023-11-18T00:27:34;21.80;;;9.98;;
54167;SDS011;68429;50.958;3.592;2023-11-18T00:30:06;29.93;;;10.60;;
54167;SDS011;68429;50.958;3.592;2023-11-18T00:32:38;24.58;;;9.25;;
54167;SDS011;68429;50.958;3.592;2023-11-18T00:35:05;24.35;;;10.20;;
54167;SDS011;68429;50.958;3.592;2023-11-18T00:37:31;26.02;;;9.90;;
54167;SDS011;68429;50.958;3.592;2023-11-18T00:39:58;25.83;;;11.20;;
54167;SDS011;68429;50.958;3.592;2023-11-18T00:42:24;24.02;;;10.85;;
54167;SDS011;68429;50.958;3.592;2023-11-18T00:44:49;24.35;;;9.90;;
54167;SDS011;68429;50.958;3.592;2023-11-18T00:47:15;27.42;;;10.07;;
54167;SDS011;68429;50.958;3.592;2023-11-18T00:49:41;28.67;;;11.30;;
54167;SDS011;68429;50.958;3.592;2023-11-18T00:52:06;24.20;;;11.20;;
54167;SDS011;68429;50.958;3.592;2023-11-18T00:54:34;20.63;;;10.02;;
54167;SDS011;68429;50.958;3.592;2023-11-18T00:57:00;22.98;;;9.50;;
54167;SDS011;68429;50.958;3.592;2023-11-18T00:59:26;21.75;;;9.65;;
54167;SDS011;68429;50.958;3.592;2023-11-18T01:01:52;26.77;;;9.98;;
54167;SDS011;68429;50.958;3.592;2023-11-18T01:04:17;22.95;;;9.80;;
54167;SDS011;68429;50.958;3.592;2023-11-18T01:06:45;28.58;;;10.52;;
54167;SDS011;68429;50.958;3.592;2023-11-18T01:09:12;24.90;;;9.32;;
54167;SDS011;68429;50.958;3.592;2023-11-18T01:11:37;20.90;;;9.48;;
54167;SDS011;68429;50.958;3.592;2023-11-18T01:14:03;24.80;;;10.18;;
54167;SDS011;68429;50.958;3.592;2023-11-18T01:16:29;25.63;;;8.45;;
54167;SDS011;68429;50.958;3.592;2023-11-18T01:18:55;30.38;;;10.25;;
54167;SDS011;68429;50.958;3.592;2023-11-18T01:21:21;24.00;;;9.73;;
54167;SDS011;68429;50.958;3.592;2023-11-18T01:23:48;28.45;;;9.60;;
54167;SDS011;68429;50.958;3.592;2023-11-18T01:26:14;22.45;;;9.27;;
54167;SDS011;68429;50.958;3.592;2023-11-18T01:28:40;23.30;;;8.75;;
54167;SDS011;68429;50.958;3.592;2023-11-18T01:31:08;21.13;;;8.73;;
54167;SDS011;68429;50.958;3.592;2023-11-18T01:33:38;23.23;;;8.50;;
54167;SDS011;68429;50.958;3.592;2023-11-18T01:36:06;30.05;;;9.55;;
54167;SDS011;68429;50.958;3.592;2023-11-18T01:38:36;22.38;;;8.02;;
54167;SDS011;68429;50.958;3.592;2023-11-18T01:41:03;29.08;;;9.18;;
54167;SDS011;68429;50.958;3.592;2023-11-18T01:43:34;22.73;;;8.25;;
54167;SDS011;68429;50.958;3.592;2023-11-18T01:46:02;18.45;;;8.23;;
54167;SDS011;68429;50.958;3.592;2023-11-18T01:48:33;23.02;;;8.30;;
54167;SDS011;68429;50.958;3.592;2023-11-18T01:51:04;24.33;;;8.23;;
54167;SDS011;68429;50.958;3.592;2023-11-18T01:53:39;34.65;;;8.32;;
54167;SDS011;68429;50.958;3.592;2023-11-18T01:56:09;24.60;;;7.88;;
54167;SDS011;68429;50.958;3.592;2023-11-18T01:58:37;24.33;;;8.27;;
54167;SDS011;68429;50.958;3.592;2023-11-18T02:01:05;21.50;;;7.35;;
54167;SDS011;68429;50.958;3.592;2023-11-18T02:03:36;25.63;;;8.55;;
54167;SDS011;68429;50.958;3.592;2023-11-18T02:06:06;28.38;;;7.60;;
54167;SDS011;68429;50.958;3.592;2023-11-18T02:08:35;23.33;;;7.13;;
54167;SDS011;68429;50.958;3.592;2023-11-18T02:11:13;24.13;;;7.72;;
54167;SDS011;68429;50.958;3.592;2023-11-18T02:13:49;22.50;;;7.10;;
54167;SDS011;68429;50.958;3.592;2023-11-18T02:16:19;24.35;;;7.57;;
54167;SDS011;68429;50.958;3.592;2023-11-18T02:18:52;21.50;;;7.00;;
54167;SDS011;68429;50.958;3.592;2023-11-18T02:21:19;26.80;;;7.15;;
54167;SDS011;68429;50.958;3.592;2023-11-18T02:23:47;38.53;;;8.20;;
54167;SDS011;68429;50.958;3.592;2023-11-18T02:26:20;18.70;;;7.13;;
54167;SDS011;68429;50.958;3.592;2023-11-18T02:28:49;27.75;;;8.55;;
54167;SDS011;68429;50.958;3.592;2023-11-18T02:31:17;33.92;;;7.07;;
54167;SDS011;68429;50.958;3.592;2023-11-18T02:33:54;25.55;;;7.20;;
54167;SDS011;68429;50.958;3.592;2023-11-18T02:36:49;20.63;;;7.55;;
54167;SDS011;68429;50.958;3.592;2023-11-18T02:39:27;25.50;;;6.43;;
54167;SDS011;68429;50.958;3.592;2023-11-18T02:41:58;20.42;;;6.50;;
54167;SDS011;68429;50.958;3.592;2023-11-18T02:44:28;22.33;;;6.68;;
54167;SDS011;68429;50.958;3.592;2023-11-18T02:46:57;21.08;;;6.57;;
54167;SDS011;68429;50.958;3.592;2023-11-18T02:49:23;20.08;;;6.35;;
54167;SDS011;68429;50.958;3.592;2023-11-18T02:51:49;21.60;;;6.25;;
54167;SDS011;68429;50.958;3.592;2023-11-18T02:54:15;21.58;;;6.68;;
54167;SDS011;68429;50.958;3.592;2023-11-18T02:56:41;18.48;;;5.70;;
54167;SDS011;68429;50.958;3.592;2023-11-18T02:59:07;19.85;;;5.28;;
54167;SDS011;68429;50.958;3.592;2023-11-18T03:01:33;14.45;;;4.35;;
54167;SDS011;68429;50.958;3.592;2023-11-18T03:04:02;15.85;;;4.30;;
54167;SDS011;68429;50.958;3.592;2023-11-18T03:06:29;26.52;;;5.65;;
54167;SDS011;68429;50.958;3.592;2023-11-18T03:08:57;26.08;;;5.20;;
54167;SDS011;68429;50.958;3.592;2023-11-18T03:11:23;20.83;;;4.65;;
54167;SDS011;68429;50.958;3.592;2023-11-18T03:13:49;22.98;;;4.85;;
54167;SDS011;68429;50.958;3.592;2023-11-18T03:16:18;15.85;;;4.35;;
54167;SDS011;68429;50.958;3.592;2023-11-18T03:18:45;17.17;;;4.93;;
54167;SDS011;68429;50.958;3.592;2023-11-18T03:21:12;15.10;;;4.97;;
54167;SDS011;68429;50.958;3.592;2023-11-18T03:23:39;18.17;;;4.63;;
54167;SDS011;68429;50.958;3.592;2023-11-18T03:26:08;19.67;;;5.40;;
54167;SDS011;68429;50.958;3.592;2023-11-18T03:28:35;22.75;;;4.70;;
54167;SDS011;68429;50.958;3.592;2023-11-18T03:31:02;15.40;;;4.35;;
54167;SDS011;68429;50.958;3.592;2023-11-18T03:33:31;21.08;;;4.13;;
54167;SDS011;68429;50.958;3.592;2023-11-18T03:35:57;18.42;;;4.80;;
54167;SDS011;68429;50.958;3.592;2023-11-18T03:38:23;18.65;;;4.63;;
54167;SDS011;68429;50.958;3.592;2023-11-18T03:40:49;15.43;;;4.15;;
54167;SDS011;68429;50.958;3.592;2023-11-18T03:43:15;17.23;;;4.28;;
54167;SDS011;68429;50.958;3.592;2023-11-18T03:45:41;17.55;;;4.38;;
54167;SDS011;68429;50.958;3.592;2023-11-18T03:48:07;14.00;;;4.70;;
54167;SDS011;68429;50.958;3.592;2023-11-18T03:50:36;21.63;;;5.05;;
54167;SDS011;68429;50.958;3.592;2023-11-18T03:53:01;23.70;;;4.57;;
54167;SDS011;68429;50.958;3.592;2023-11-18T03:55:28;15.27;;;3.67;;
54167;SDS011;68429;50.958;3.592;2023-11-18T03:57:54;17.60;;;4.50;;
54167;SDS011;68429;50.958;3.592;2023-11-18T04:00:22;21.63;;;5.10;;
54167;SDS011;68429;50.958;3.592;2023-11-18T04:02:47;16.58;;;4.07;;
54167;SDS011;68429;50.958;3.592;2023-11-18T04:05:13;14.75;;;4.03;;
54167;SDS011;68429;50.958;3.592;2023-11-18T04:07:39;13.20;;;3.22;;
54167;SDS011;68429;50.958;3.592;2023-11-18T04:10:07;17.35;;;3.20;;
54167;SDS011;68429;50.958;3.592;2023-11-18T04:12:35;15.18;;;3.65;;
54167;SDS011;68429;50.958;3.592;2023-11-18T04:15:02;12.05;;;3.40;;
54167;SDS011;68429;50.958;3.592;2023-11-18T04:17:29;10.60;;;2.92;;
54167;SDS011;68429;50.958;3.592;2023-11-18T04:19:55;16.45;;;3.33;;
54167;SDS011;68429;50.958;3.592;2023-11-18T04:22:21;10.70;;;2.88;;
54167;SDS011;68429;50.958;3.592;2023-11-18T04:24:48;17.33;;;3.50;;
54167;SDS011;68429;50.958;3.592;2023-11-18T04:27:13;13.63;;;3.55;;
54167;SDS011;68429;50.958;3.592;2023-11-18T04:29:39;13.85;;;3.50;;
54167;SDS011;68429;50.958;3.592;2023-11-18T04:32:07;15.85;;;3.10;;
54167;SDS011;68429;50.958;3.592;2023-11-18T04:34:39;19.67;;;3.38;;
54167;SDS011;68429;50.958;3.592;2023-11-18T04:37:04;17.73;;;3.75;;
54167;SDS011;68429;50.958;3.592;2023-11-18T04:39:34;13.27;;;3.30;;
54167;SDS011;68429;50.958;3.592;2023-11-18T04:41:59;14.98;;;3.08;;
54167;SDS011;68429;50.958;3.592;2023-11-18T04:44:26;13.40;;;3.03;;
54167;SDS011;68429;50.958;3.592;2023-11-18T04:46:52;21.55;;;3.63;;
54167;SDS011;68429;50.958;3.592;2023-11-18T04:49:18;14.70;;;2.85;;
54167;SDS011;68429;50.958;3.592;2023-11-18T04:51:44;12.25;;;3.15;;
54167;SDS011;68429;50.958;3.592;2023-11-18T04:54:10;19.90;;;3.50;;
54167;SDS011;68429;50.958;3.592;2023-11-18T04:56:37;16.25;;;2.70;;
54167;SDS011;68429;50.958;3.592;2023-11-18T04:59:03;11.75;;;3.00;;
54167;SDS011;68429;50.958;3.592;2023-11-18T05:01:32;17.67;;;3.25;;
54167;SDS011;68429;50.958;3.592;2023-11-18T05:03:58;17.67;;;2.92;;
54167;SDS011;68429;50.958;3.592;2023-11-18T05:06:24;17.13;;;4.22;;
54167;SDS011;68429;50.958;3.592;2023-11-18T05:08:51;12.23;;;3.08;;
54167;SDS011;68429;50.958;3.592;2023-11-18T05:11:17;16.73;;;3.75;;
54167;SDS011;68429;50.958;3.592;2023-11-18T05:13:42;24.58;;;4.22;;
54167;SDS011;68429;50.958;3.592;2023-11-18T05:16:08;18.45;;;3.03;;
54167;SDS011;68429;50.958;3.592;2023-11-18T05:18:35;14.25;;;2.78;;
54167;SDS011;68429;50.958;3.592;2023-11-18T05:21:02;12.05;;;2.60;;
54167;SDS011;68429;50.958;3.592;2023-11-18T05:23:33;20.20;;;3.17;;
54167;SDS011;68429;50.958;3.592;2023-11-18T05:26:00;15.30;;;2.65;;
54167;SDS011;68429;50.958;3.592;2023-11-18T05:28:27;16.23;;;3.15;;
54167;SDS011;68429;50.958;3.592;2023-11-18T05:30:55;9.50;;;2.60;;
54167;SDS011;68429;50.958;3.592;2023-11-18T05:33:23;12.65;;;2.70;;
54167;SDS011;68429;50.958;3.592;2023-11-18T05:35:48;13.23;;;2.50;;
54167;SDS011;68429;50.958;3.592;2023-11-18T05:38:18;13.10;;;2.38;;
54167;SDS011;68429;50.958;3.592;2023-11-18T05:40:49;10.63;;;2.50;;
54167;SDS011;68429;50.958;3.592;2023-11-18T05:43:25;11.85;;;3.28;;
54167;SDS011;68429;50.958;3.592;2023-11-18T05:45:55;14.13;;;2.72;;
54167;SDS011;68429;50.958;3.592;2023-11-18T05:48:39;10.65;;;2.78;;
54167;SDS011;68429;50.958;3.592;2023-11-18T05:51:08;13.30;;;2.53;;
54167;SDS011;68429;50.958;3.592;2023-11-18T05:53:34;17.98;;;3.22;;
54167;SDS011;68429;50.958;3.592;2023-11-18T05:56:04;15.02;;;3.03;;
54167;SDS011;68429;50.958;3.592;2023-11-18T05:58:31;9.95;;;2.72;;
54167;SDS011;68429;50.958;3.592;2023-11-18T06:00:57;18.45;;;3.00;;
54167;SDS011;68429;50.958;3.592;2023-11-18T06:03:23;13.63;;;2.88;;
54167;SDS011;68429;50.958;3.592;2023-11-18T06:05:49;15.60;;;3.95;;
54167;SDS011;68429;50.958;3.592;2023-11-18T06:08:16;14.52;;;2.72;;
54167;SDS011;68429;50.958;3.592;2023-11-18T06:10:42;14.65;;;2.70;;
54167;SDS011;68429;50.958;3.592;2023-11-18T06:13:09;16.85;;;3.45;;
54167;SDS011;68429;50.958;3.592;2023-11-18T06:15:38;19.05;;;3.78;;
54167;SDS011;68429;50.958;3.592;2023-11-18T06:18:04;11.95;;;3.22;;
54167;SDS011;68429;50.958;3.592;2023-11-18T06:20:30;14.73;;;3.17;;
54167;SDS011;68429;50.958;3.592;2023-11-18T06:22:58;21.88;;;3.80;;
54167;SDS011;68429;50.958;3.592;2023-11-18T06:25:23;17.00;;;3.67;;
54167;SDS011;68429;50.958;3.592;2023-11-18T06:27:51;12.55;;;3.30;;
54167;SDS011;68429;50.958;3.592;2023-11-18T06:30:18;18.17;;;4.10;;
54167;SDS011;68429;50.958;3.592;2023-11-18T06:32:45;19.23;;;4.22;;
54167;SDS011;68429;50.958;3.592;2023-11-18T06:35:12;18.67;;;4.60;;
54167;SDS011;68429;50.958;3.592;2023-11-18T06:37:40;18.48;;;4.68;;
54167;SDS011;68429;50.958;3.592;2023-11-18T06:40:05;18.98;;;4.57;;
54167;SDS011;68429;50.958;3.592;2023-11-18T06:42:41;17.40;;;3.88;;
54167;SDS011;68429;50.958;3.592;2023-11-18T06:45:13;14.25;;;3.30;;
54167;SDS011;68429;50.958;3.592;2023-11-18T06:47:40;19.42;;;4.22;;
54167;SDS011;68429;50.958;3.592;2023-11-18T06:52:39;18.45;;;4.55;;
54167;SDS011;68429;50.958;3.592;2023-11-18T06:55:06;19.98;;;4.75;;
54167;SDS011;68429;50.958;3.592;2023-11-18T06:57:33;20.35;;;5.88;;
54167;SDS011;68429;50.958;3.592;2023-11-18T06:59:58;21.05;;;5.30;;
54167;SDS011;68429;50.958;3.592;2023-11-18T07:02:24;20.75;;;4.72;;
54167;SDS011;68429;50.958;3.592;2023-11-18T07:04:49;17.63;;;4.85;;
54167;SDS011;68429;50.958;3.592;2023-11-18T07:07:15;18.48;;;4.65;;
54167;SDS011;68429;50.958;3.592;2023-11-18T07:09:41;16.55;;;4.65;;
54167;SDS011;68429;50.958;3.592;2023-11-18T07:12:09;25.20;;;5.05;;
54167;SDS011;68429;50.958;3.592;2023-11-18T07:14:35;26.63;;;5.65;;
54167;SDS011;68429;50.958;3.592;2023-11-18T07:17:00;15.18;;;4.10;;
54167;SDS011;68429;50.958;3.592;2023-11-18T07:19:26;22.13;;;4.50;;
54167;SDS011;68429;50.958;3.592;2023-11-18T07:21:53;17.08;;;4.20;;
54167;SDS011;68429;50.958;3.592;2023-11-18T07:24:19;15.93;;;4.90;;
54167;SDS011;68429;50.958;3.592;2023-11-18T07:26:45;27.55;;;6.07;;
54167;SDS011;68429;50.958;3.592;2023-11-18T07:29:11;27.98;;;6.00;;
54167;SDS011;68429;50.958;3.592;2023-11-18T07:31:36;23.60;;;5.57;;
54167;SDS011;68429;50.958;3.592;2023-11-18T07:34:05;20.02;;;5.65;;
54167;SDS011;68429;50.958;3.592;2023-11-18T07:36:31;22.83;;;4.53;;
54167;SDS011;68429;50.958;3.592;2023-11-18T07:38:58;19.13;;;5.03;;
54167;SDS011;68429;50.958;3.592;2023-11-18T07:41:26;20.17;;;5.32;;
54167;SDS011;68429;50.958;3.592;2023-11-18T07:43:52;16.88;;;4.88;;
54167;SDS011;68429;50.958;3.592;2023-11-18T07:46:20;15.68;;;5.32;;
54167;SDS011;68429;50.958;3.592;2023-11-18T07:48:50;18.95;;;5.70;;
54167;SDS011;68429;50.958;3.592;2023-11-18T07:51:17;18.35;;;5.03;;
54167;SDS011;68429;50.958;3.592;2023-11-18T07:53:43;20.70;;;5.57;;
54167;SDS011;68429;50.958;3.592;2023-11-18T07:56:09;19.10;;;5.50;;
54167;SDS011;68429;50.958;3.592;2023-11-18T07:58:37;19.95;;;4.78;;
54167;SDS011;68429;50.958;3.592;2023-11-18T08:01:03;20.27;;;4.80;;
54167;SDS011;68429;50.958;3.592;2023-11-18T08:03:32;22.58;;;5.82;;
54167;SDS011;68429;50.958;3.592;2023-11-18T08:06:02;23.25;;;5.18;;
54167;SDS011;68429;50.958;3.592;2023-11-18T08:10:57;19.27;;;5.28;;
54167;SDS011;68429;50.958;3.592;2023-11-18T08:13:23;14.00;;;4.10;;
54167;SDS011;68429;50.958;3.592;2023-11-18T08:15:49;14.73;;;4.68;;
54167;SDS011;68429;50.958;3.592;2023-11-18T08:18:14;13.93;;;4.50;;
54167;SDS011;68429;50.958;3.592;2023-11-18T08:20:40;15.68;;;4.40;;
54167;SDS011;68429;50.958;3.592;2023-11-18T08:23:08;17.33;;;4.50;;
54167;SDS011;68429;50.958;3.592;2023-11-18T08:25:34;15.85;;;5.32;;
54167;SDS011;68429;50.958;3.592;2023-11-18T08:28:05;16.02;;;4.75;;
54167;SDS011;68429;50.958;3.592;2023-11-18T08:30:32;13.68;;;4.45;;
54167;SDS011;68429;50.958;3.592;2023-11-18T08:33:07;13.82;;;4.45;;
54167;SDS011;68429;50.958;3.592;2023-11-18T08:35:35;15.13;;;4.40;;
54167;SDS011;68429;50.958;3.592;2023-11-18T08:38:02;15.57;;;5.00;;
54167;SDS011;68429;50.958;3.592;2023-11-18T08:40:29;11.82;;;4.68;;
54167;SDS011;68429;50.958;3.592;2023-11-18T08:42:55;16.73;;;5.30;;
54167;SDS011;68429;50.958;3.592;2023-11-18T08:45:27;16.45;;;4.82;;
54167;SDS011;68429;50.958;3.592;2023-11-18T08:47:58;15.82;;;5.45;;
54167;SDS011;68429;50.958;3.592;2023-11-18T08:50:26;21.33;;;5.17;;
54167;SDS011;68429;50.958;3.592;2023-11-18T08:52:53;15.65;;;6.03;;
54167;SDS011;68429;50.958;3.592;2023-11-18T08:55:23;20.95;;;6.50;;
54167;SDS011;68429;50.958;3.592;2023-11-18T08:58:04;17.23;;;5.28;;
54167;SDS011;68429;50.958;3.592;2023-11-18T09:00:40;13.32;;;5.07;;
54167;SDS011;68429;50.958;3.592;2023-11-18T09:03:10;14.52;;;4.63;;
54167;SDS011;68429;50.958;3.592;2023-11-18T09:06:02;16.50;;;6.15;;
54167;SDS011;68429;50.958;3.592;2023-11-18T09:08:31;13.65;;;5.15;;
54167;SDS011;68429;50.958;3.592;2023-11-18T09:11:05;17.13;;;4.88;;
54167;SDS011;68429;50.958;3.592;2023-11-18T09:13:32;12.43;;;5.20;;
54167;SDS011;68429;50.958;3.592;2023-11-18T09:18:34;14.52;;;5.60;;
54167;SDS011;68429;50.958;3.592;2023-11-18T09:21:01;17.08;;;5.63;;
54167;SDS011;68429;50.958;3.592;2023-11-18T09:23:29;17.63;;;5.40;;
54167;SDS011;68429;50.958;3.592;2023-11-18T09:25:56;10.98;;;5.35;;
54167;SDS011;68429;50.958;3.592;2023-11-18T09:28:23;15.57;;;6.38;;
54167;SDS011;68429;50.958;3.592;2023-11-18T09:30:50;9.35;;;6.00;;
54167;SDS011;68429;50.958;3.592;2023-11-18T09:33:22;16.90;;;6.37;;
54167;SDS011;68429;50.958;3.592;2023-11-18T09:36:00;20.75;;;6.57;;
54167;SDS011;68429;50.958;3.592;2023-11-18T09:40:56;16.48;;;6.78;;
54167;SDS011;68429;50.958;3.592;2023-11-18T09:43:28;9.65;;;6.05;;
54167;SDS011;68429;50.958;3.592;2023-11-18T09:46:15;11.73;;;6.03;;
54167;SDS011;68429;50.958;3.592;2023-11-18T09:48:50;13.40;;;5.80;;
54167;SDS011;68429;50.958;3.592;2023-11-18T09:51:25;13.15;;;5.78;;
54167;SDS011;68429;50.958;3.592;2023-11-18T09:53:58;10.95;;;5.85;;
54167;SDS011;68429;50.958;3.592;2023-11-18T09:59:24;9.18;;;5.13;;
54167;SDS011;68429;50.958;3.592;2023-11-18T10:02:00;12.10;;;4.97;;
54167;SDS011;68429;50.958;3.592;2023-11-18T10:04:29;10.60;;;4.72;;
54167;SDS011;68429;50.958;3.592;2023-11-18T10:06:56;11.30;;;4.85;;
54167;SDS011;68429;50.958;3.592;2023-11-18T10:09:26;10.55;;;4.38;;
54167;SDS011;68429;50.958;3.592;2023-11-18T10:12:12;13.65;;;4.28;;
54167;SDS011;68429;50.958;3.592;2023-11-18T10:14:42;6.50;;;3.92;;
54167;SDS011;68429;50.958;3.592;2023-11-18T10:17:10;6.50;;;3.38;;
54167;SDS011;68429;50.958;3.592;2023-11-18T10:19:58;10.43;;;3.80;;
54167;SDS011;68429;50.958;3.592;2023-11-18T10:22:37;9.30;;;3.97;;
54167;SDS011;68429;50.958;3.592;2023-11-18T10:25:03;10.63;;;4.18;;
54167;SDS011;68429;50.958;3.592;2023-11-18T10:27:31;7.45;;;3.33;;
54167;SDS011;68429;50.958;3.592;2023-11-18T10:30:03;7.70;;;3.75;;
54167;SDS011;68429;50.958;3.592;2023-11-18T10:32:30;4.97;;;3.13;;
54167;SDS011;68429;50.958;3.592;2023-11-18T10:35:00;5.90;;;3.25;;
54167;SDS011;68429;50.958;3.592;2023-11-18T10:37:30;4.57;;;3.10;;
54167;SDS011;68429;50.958;3.592;2023-11-18T10:39:56;4.20;;;2.65;;
54167;SDS011;68429;50.958;3.592;2023-11-18T10:42:25;8.20;;;3.28;;
54167;SDS011;68429;50.958;3.592;2023-11-18T10:44:58;4.88;;;2.75;;
54167;SDS011;68429;50.958;3.592;2023-11-18T10:47:28;8.05;;;2.92;;
54167;SDS011;68429;50.958;3.592;2023-11-18T10:49:58;8.20;;;3.67;;
54167;SDS011;68429;50.958;3.592;2023-11-18T10:52:24;5.20;;;3.17;;
54167;SDS011;68429;50.958;3.592;2023-11-18T10:55:00;4.47;;;2.63;;
54167;SDS011;68429;50.958;3.592;2023-11-18T10:57:32;4.53;;;2.40;;
54167;SDS011;68429;50.958;3.592;2023-11-18T11:00:01;2.30;;;2.10;;
54167;SDS011;68429;50.958;3.592;2023-11-18T11:02:32;5.70;;;2.42;;
54167;SDS011;68429;50.958;3.592;2023-11-18T11:05:03;6.75;;;1.90;;
54167;SDS011;68429;50.958;3.592;2023-11-18T11:07:29;6.30;;;2.10;;
54167;SDS011;68429;50.958;3.592;2023-11-18T11:09:57;4.93;;;1.70;;
54167;SDS011;68429;50.958;3.592;2023-11-18T11:12:25;2.72;;;1.90;;
54167;SDS011;68429;50.958;3.592;2023-11-18T11:14:57;2.53;;;1.60;;
54167;SDS011;68429;50.958;3.592;2023-11-18T11:17:29;2.47;;;1.23;;
54167;SDS011;68429;50.958;3.592;2023-11-18T11:22:38;2.05;;;1.13;;
54167;SDS011;68429;50.958;3.592;2023-11-18T11:30:40;3.83;;;1.70;;
54167;SDS011;68429;50.958;3.592;2023-11-18T11:33:14;2.50;;;1.42;;
54167;SDS011;68429;50.958;3.592;2023-11-18T11:35:55;3.50;;;1.63;;
54167;SDS011;68429;50.958;3.592;2023-11-18T11:38:25;3.50;;;1.70;;
54167;SDS011;68429;50.958;3.592;2023-11-18T11:40:52;2.45;;;1.67;;
54167;SDS011;68429;50.958;3.592;2023-11-18T11:43:20;4.78;;;1.30;;
54167;SDS011;68429;50.958;3.592;2023-11-18T11:45:52;3.53;;;1.58;;
54167;SDS011;68429;50.958;3.592;2023-11-18T11:48:22;5.55;;;2.40;;
54167;SDS011;68429;50.958;3.592;2023-11-18T11:51:25;1.75;;;1.52;;
54167;SDS011;68429;50.958;3.592;2023-11-18T11:54:01;2.65;;;1.40;;
54167;SDS011;68429;50.958;3.592;2023-11-18T11:56:43;3.35;;;1.60;;
54167;SDS011;68429;50.958;3.592;2023-11-18T11:59:12;1.60;;;1.00;;
54167;SDS011;68429;50.958;3.592;2023-11-18T12:01:40;3.17;;;1.40;;
54167;SDS011;68429;50.958;3.592;2023-11-18T12:04:12;2.60;;;1.58;;
54167;SDS011;68429;50.958;3.592;2023-11-18T12:06:46;2.33;;;1.65;;
54167;SDS011;68429;50.958;3.592;2023-11-18T12:09:16;3.30;;;1.75;;
54167;SDS011;68429;50.958;3.592;2023-11-18T12:11:47;3.25;;;1.83;;
54167;SDS011;68429;50.958;3.592;2023-11-18T12:14:16;9.40;;;2.70;;
54167;SDS011;68429;50.958;3.592;2023-11-18T12:17:07;7.85;;;2.75;;
54167;SDS011;68429;50.958;3.592;2023-11-18T12:19:42;4.72;;;1.73;;
54167;SDS011;68429;50.958;3.592;2023-11-18T12:22:16;3.28;;;1.73;;
54167;SDS011;68429;50.958;3.592;2023-11-18T12:33:06;6.65;;;2.55;;
54167;SDS011;68429;50.958;3.592;2023-11-18T12:41:38;5.18;;;2.10;;
54167;SDS011;68429;50.958;3.592;2023-11-18T12:49:15;4.60;;;1.85;;
54167;SDS011;68429;50.958;3.592;2023-11-18T12:51:45;6.15;;;2.53;;
54167;SDS011;68429;50.958;3.592;2023-11-18T12:54:11;4.53;;;2.25;;
54167;SDS011;68429;50.958;3.592;2023-11-18T12:56:40;3.80;;;2.03;;
54167;SDS011;68429;50.958;3.592;2023-11-18T12:59:09;3.33;;;1.70;;
54167;SDS011;68429;50.958;3.592;2023-11-18T13:01:38;4.57;;;1.85;;
54167;SDS011;68429;50.958;3.592;2023-11-18T13:04:07;4.80;;;1.95;;
54167;SDS011;68429;50.958;3.592;2023-11-18T13:06:33;3.15;;;1.20;;
54167;SDS011;68429;50.958;3.592;2023-11-18T13:09:00;4.60;;;1.70;;
54167;SDS011;68429;50.958;3.592;2023-11-18T13:11:31;3.50;;;1.67;;
54167;SDS011;68429;50.958;3.592;2023-11-18T13:13:59;3.92;;;1.55;;
54167;SDS011;68429;50.958;3.592;2023-11-18T13:16:24;2.75;;;1.83;;
54167;SDS011;68429;50.958;3.592;2023-11-18T13:18:50;3.22;;;1.67;;
54167;SDS011;68429;50.958;3.592;2023-11-18T13:21:17;2.90;;;1.75;;
54167;SDS011;68429;50.958;3.592;2023-11-18T13:23:47;4.28;;;2.10;;
54167;SDS011;68429;50.958;3.592;2023-11-18T13:26:15;2.70;;;1.75;;
54167;SDS011;68429;50.958;3.592;2023-11-18T13:28:41;3.22;;;2.13;;
54167;SDS011;68429;50.958;3.592;2023-11-18T13:31:09;2.47;;;2.00;;
54167;SDS011;68429;50.958;3.592;2023-11-18T13:33:38;2.50;;;2.20;;
54167;SDS011;68429;50.958;3.592;2023-11-18T13:36:05;2.38;;;2.17;;
54167;SDS011;68429;50.958;3.592;2023-11-18T13:38:32;3.90;;;2.30;;
54167;SDS011;68429;50.958;3.592;2023-11-18T13:40:58;2.10;;;1.90;;
54167;SDS011;68429;50.958;3.592;2023-11-18T13:43:28;4.03;;;2.50;;
54167;SDS011;68429;50.958;3.592;2023-11-18T13:46:14;2.00;;;1.90;;
54167;SDS011;68429;50.958;3.592;2023-11-18T13:48:46;1.63;;;1.52;;
54167;SDS011;68429;50.958;3.592;2023-11-18T13:51:14;2.38;;;2.00;;
54167;SDS011;68429;50.958;3.592;2023-11-18T13:53:40;1.38;;;1.38;;
54167;SDS011;68429;50.958;3.592;2023-11-18T13:56:14;2.47;;;1.13;;
54167;SDS011;68429;50.958;3.592;2023-11-18T13:58:43;1.15;;;1.00;;
54167;SDS011;68429;50.958;3.592;2023-11-18T14:01:10;1.10;;;1.00;;
54167;SDS011;68429;50.958;3.592;2023-11-18T14:03:39;1.20;;;1.20;;
54167;SDS011;68429;50.958;3.592;2023-11-18T14:06:08;1.50;;;1.40;;
54167;SDS011;68429;50.958;3.592;2023-11-18T14:08:40;3.53;;;0.98;;
54167;SDS011;68429;50.958;3.592;2023-11-18T14:11:07;0.93;;;0.93;;
54167;SDS011;68429;50.958;3.592;2023-11-18T14:13:34;0.90;;;0.90;;
54167;SDS011;68429;50.958;3.592;2023-11-18T14:16:03;1.30;;;1.10;;
54167;SDS011;68429;50.958;3.592;2023-11-18T14:18:34;1.25;;;1.13;;
54167;SDS011;68429;50.958;3.592;2023-11-18T14:21:01;1.98;;;1.73;;
54167;SDS011;68429;50.958;3.592;2023-11-18T14:23:27;1.15;;;1.15;;
54167;SDS011;68429;50.958;3.592;2023-11-18T14:25:52;2.20;;;1.40;;
54167;SDS011;68429;50.958;3.592;2023-11-18T14:28:18;1.92;;;1.48;;
54167;SDS011;68429;50.958;3.592;2023-11-18T14:30:44;1.05;;;1.02;;
54167;SDS011;68429;50.958;3.592;2023-11-18T14:33:10;2.83;;;1.30;;
54167;SDS011;68429;50.958;3.592;2023-11-18T14:35:36;1.33;;;1.23;;
54167;SDS011;68429;50.958;3.592;2023-11-18T14:38:02;1.27;;;1.17;;
54167;SDS011;68429;50.958;3.592;2023-11-18T14:40:28;3.10;;;2.65;;
54167;SDS011;68429;50.958;3.592;2023-11-18T14:42:54;1.50;;;1.40;;
54167;SDS011;68429;50.958;3.592;2023-11-18T14:45:20;1.48;;;1.38;;
54167;SDS011;68429;50.958;3.592;2023-11-18T14:47:46;3.35;;;2.65;;
54167;SDS011;68429;50.958;3.592;2023-11-18T14:50:19;2.60;;;1.60;;
54167;SDS011;68429;50.958;3.592;2023-11-18T14:52:46;3.15;;;2.58;;
54167;SDS011;68429;50.958;3.592;2023-11-18T14:55:14;1.55;;;1.45;;
54167;SDS011;68429;50.958;3.592;2023-11-18T14:57:42;2.13;;;1.95;;
54167;SDS011;68429;50.958;3.592;2023-11-18T15:00:09;3.35;;;3.05;;
54167;SDS011;68429;50.958;3.592;2023-11-18T15:02:47;5.57;;;4.55;;
54167;SDS011;68429;50.958;3.592;2023-11-18T15:05:15;1.90;;;1.80;;
54167;SDS011;68429;50.958;3.592;2023-11-18T15:07:45;2.33;;;2.13;;
54167;SDS011;68429;50.958;3.592;2023-11-18T15:10:26;2.40;;;2.10;;
54167;SDS011;68429;50.958;3.592;2023-11-18T15:12:57;2.38;;;2.17;;
54167;SDS011;68429;50.958;3.592;2023-11-18T15:15:27;1.83;;;1.73;;
54167;SDS011;68429;50.958;3.592;2023-11-18T15:17:58;3.40;;;3.10;;
54167;SDS011;68429;50.958;3.592;2023-11-18T15:20:28;2.63;;;2.15;;
54167;SDS011;68429;50.958;3.592;2023-11-18T15:22:54;3.05;;;2.60;;
54167;SDS011;68429;50.958;3.592;2023-11-18T15:25:20;2.67;;;2.47;;
54167;SDS011;68429;50.958;3.592;2023-11-18T15:27:46;2.70;;;2.50;;